PWSweather.com
Personal Weather Stations
Station Observations
UXOLA
Alcoy, AlcoyES

AlcoyAlcoyES

Lat: 38.70299, Lon: -0.48184

Elevation: 1935

Station Type: PCE FWS-20,

http://www.fiestasalcoy.xyz

High Low Average
Temperature 47.1°F8.4°C 36.3°F2.4°C 41.2°F5.1°C
Dew Point 21.4°F-5.9°C 9.4°F-12.6°C 17.1°F-8.3°C
Winds 21.3 mph 34.3 kmh 0.7 mph 1.1 kmh 7.0 mph SSE11.3 kmh SSE
Wind Gusts 34.2 mph55.0 kmh 5.4 mph8.7 kmh 15.0 mph24.1 kmh
Humidity 51% 23% 39%
Pressure 30.08 in1018.6 mb 29.79 in1008.8 mb -
Precipitation 0.01 in0.3 mm - -
Hour Temp Dew Point Humidity Winds Wind Gusts Pressure Precip Precip Rate Daily Precip Total
12:00 AM 39.6°F4.2°C 18.9°F-7.3°C 43% 3.8 mph NNW6.1 kmh NNW 18.3 mph29.5 kmh 29.79 in1008.8 mb 0.00 in0.0 mm 0.00 in0.0 mm 0.00 in0.0 mm
12:15 AM 39.2°F4.0°C 18.6°F-7.4°C 43% 3.8 mph WNW6.1 kmh WNW 16.8 mph27.0 kmh 29.79 in1008.8 mb 0.00 in0.0 mm 0.00 in0.0 mm 0.00 in0.0 mm
12:30 AM 39.0°F3.9°C 19.0°F-7.2°C 44% 6.9 mph N11.1 kmh N 13.0 mph20.9 kmh 29.79 in1008.8 mb 0.00 in0.0 mm 0.00 in0.0 mm 0.00 in0.0 mm
12:45 AM 39.0°F3.9°C 19.0°F-7.2°C 44% 3.1 mph WNW5.0 kmh WNW 14.5 mph23.3 kmh 29.79 in1008.8 mb 0.00 in0.0 mm 0.00 in0.0 mm 0.00 in0.0 mm
01:00 AM 38.8°F3.8°C 19.3°F-7.1°C 45% 1.6 mph W2.6 kmh W 6.9 mph11.1 kmh 29.80 in1009.1 mb 0.00 in0.0 mm 0.00 in0.0 mm 0.00 in0.0 mm
01:15 AM 38.8°F3.8°C 19.3°F-7.1°C 45% 0.7 mph SSE1.1 kmh SSE 5.4 mph8.7 kmh 29.80 in1009.1 mb 0.00 in0.0 mm 0.00 in0.0 mm 0.00 in0.0 mm
01:30 AM 38.7°F3.7°C 19.7°F-6.8°C 46% 2.2 mph SSE3.5 kmh SSE 7.6 mph12.2 kmh 29.81 in1009.5 mb 0.00 in0.0 mm 0.00 in0.0 mm 0.00 in0.0 mm
01:45 AM 38.8°F3.8°C 19.9°F-6.7°C 46% 3.8 mph WNW6.1 kmh WNW 16.8 mph27.0 kmh 29.80 in1009.1 mb 0.00 in0.0 mm 0.00 in0.0 mm 0.00 in0.0 mm
02:00 AM 38.7°F3.7°C 19.7°F-6.8°C 46% 2.2 mph NW3.5 kmh NW 9.2 mph14.8 kmh 29.81 in1009.5 mb 0.00 in0.0 mm 0.00 in0.0 mm 0.00 in0.0 mm
02:15 AM 38.3°F3.5°C 19.9°F-6.7°C 47% 3.8 mph WNW6.1 kmh WNW 9.2 mph14.8 kmh 29.81 in1009.5 mb 0.00 in0.0 mm 0.00 in0.0 mm 0.00 in0.0 mm
02:30 AM 38.3°F3.5°C 19.9°F-6.7°C 47% 3.8 mph WNW6.1 kmh WNW 11.4 mph18.3 kmh 29.80 in1009.1 mb 0.00 in0.0 mm 0.00 in0.0 mm 0.00 in0.0 mm
02:45 AM 38.5°F3.6°C 20.0°F-6.7°C 47% 2.2 mph NW3.5 kmh NW 6.9 mph11.1 kmh 29.81 in1009.5 mb 0.00 in0.0 mm 0.00 in0.0 mm 0.00 in0.0 mm
03:00 AM 38.3°F3.5°C 20.4°F-6.4°C 48% 2.2 mph NNW3.5 kmh NNW 6.9 mph11.1 kmh 29.82 in1009.8 mb 0.00 in0.0 mm 0.00 in0.0 mm 0.00 in0.0 mm
03:15 AM 38.1°F3.4°C 20.7°F-6.3°C 49% 2.2 mph W3.5 kmh W 12.1 mph19.5 kmh 29.83 in1010.2 mb 0.00 in0.0 mm 0.00 in0.0 mm 0.00 in0.0 mm
03:30 AM 38.3°F3.5°C 21.3°F-5.9°C 50% 3.1 mph NNW5.0 kmh NNW 10.7 mph17.2 kmh 29.83 in1010.2 mb 0.00 in0.0 mm 0.00 in0.0 mm 0.00 in0.0 mm
03:45 AM 38.3°F3.5°C 21.3°F-5.9°C 50% 2.2 mph SE3.5 kmh SE 12.1 mph19.5 kmh 29.82 in1009.8 mb 0.00 in0.0 mm 0.00 in0.0 mm 0.00 in0.0 mm
04:00 AM 38.3°F3.5°C 21.3°F-5.9°C 50% 4.5 mph NNE7.2 kmh NNE 13.6 mph21.9 kmh 29.82 in1009.8 mb 0.00 in0.0 mm 0.00 in0.0 mm 0.00 in0.0 mm
04:15 AM 38.1°F3.4°C 21.1°F-6.1°C 50% 1.6 mph N2.6 kmh N 9.8 mph15.8 kmh 29.82 in1009.8 mb 0.00 in0.0 mm 0.00 in0.0 mm 0.00 in0.0 mm
04:30 AM 38.1°F3.4°C 21.1°F-6.1°C 50% 3.1 mph NE5.0 kmh NE 13.0 mph20.9 kmh 29.83 in1010.2 mb 0.00 in0.0 mm 0.00 in0.0 mm 0.00 in0.0 mm
04:45 AM 37.9°F3.3°C 21.0°F-6.1°C 50% 4.5 mph NE7.2 kmh NE 7.6 mph12.2 kmh 29.83 in1010.2 mb 0.00 in0.0 mm 0.00 in0.0 mm 0.00 in0.0 mm
05:00 AM 37.9°F3.3°C 21.4°F-5.9°C 51% 1.6 mph SE2.6 kmh SE 15.2 mph24.5 kmh 29.83 in1010.2 mb 0.00 in0.0 mm 0.00 in0.0 mm 0.00 in0.0 mm
05:15 AM 37.8°F3.2°C 21.3°F-5.9°C 51% 12.1 mph SE19.5 kmh SE 16.8 mph27.0 kmh 29.84 in1010.5 mb 0.00 in0.0 mm 0.00 in0.0 mm 0.00 in0.0 mm
05:30 AM 37.8°F3.2°C 21.3°F-5.9°C 51% 3.1 mph E5.0 kmh E 9.2 mph14.8 kmh 29.85 in1010.8 mb 0.00 in0.0 mm 0.00 in0.0 mm 0.00 in0.0 mm
05:45 AM 37.8°F3.2°C 21.3°F-5.9°C 51% 3.1 mph NW5.0 kmh NW 13.0 mph20.9 kmh 29.85 in1010.8 mb 0.00 in0.0 mm 0.00 in0.0 mm 0.00 in0.0 mm
06:00 AM 37.6°F3.1°C 21.1°F-6.1°C 51% 3.8 mph NW6.1 kmh NW 13.0 mph20.9 kmh 29.86 in1011.2 mb 0.00 in0.0 mm 0.00 in0.0 mm 0.00 in0.0 mm
06:15 AM 37.6°F3.1°C 20.6°F-6.3°C 50% 6.0 mph NE9.7 kmh NE 19.0 mph30.6 kmh 29.85 in1010.8 mb 0.00 in0.0 mm 0.00 in0.0 mm 0.00 in0.0 mm
06:30 AM 37.4°F3.0°C 20.9°F-6.2°C 51% 6.9 mph NE11.1 kmh NE 13.6 mph21.9 kmh 29.85 in1010.8 mb 0.00 in0.0 mm 0.00 in0.0 mm 0.00 in0.0 mm
06:45 AM 37.0°F2.8°C 20.6°F-6.3°C 51% 4.5 mph ENE7.2 kmh ENE 11.4 mph18.3 kmh 29.85 in1010.8 mb 0.00 in0.0 mm 0.00 in0.0 mm 0.00 in0.0 mm
07:00 AM 36.9°F2.7°C 20.4°F-6.4°C 51% 2.2 mph SE3.5 kmh SE 11.4 mph18.3 kmh 29.86 in1011.2 mb 0.00 in0.0 mm 0.00 in0.0 mm 0.00 in0.0 mm
07:15 AM 36.7°F2.6°C 19.8°F-6.8°C 50% 6.9 mph S11.1 kmh S 12.1 mph19.5 kmh 29.85 in1010.8 mb 0.00 in0.0 mm 0.00 in0.0 mm 0.00 in0.0 mm
07:30 AM 36.5°F2.5°C 19.7°F-6.8°C 50% 4.5 mph E7.2 kmh E 9.2 mph14.8 kmh 29.86 in1011.2 mb 0.00 in0.0 mm 0.00 in0.0 mm 0.00 in0.0 mm
07:45 AM 36.5°F2.5°C 19.7°F-6.8°C 50% 6.9 mph NNE11.1 kmh NNE 9.8 mph15.8 kmh 29.87 in1011.5 mb 0.00 in0.0 mm 0.00 in0.0 mm 0.00 in0.0 mm
08:00 AM 36.5°F2.5°C 19.7°F-6.8°C 50% 7.6 mph SE12.2 kmh SE 9.8 mph15.8 kmh 29.87 in1011.5 mb 0.00 in0.0 mm 0.00 in0.0 mm 0.00 in0.0 mm
08:15 AM 36.5°F2.5°C 19.7°F-6.8°C 50% 2.2 mph E3.5 kmh E 8.3 mph13.4 kmh 29.88 in1011.9 mb 0.00 in0.0 mm 0.00 in0.0 mm 0.00 in0.0 mm
08:30 AM 36.3°F2.4°C 19.9°F-6.7°C 51% 4.5 mph E7.2 kmh E 13.0 mph20.9 kmh 29.89 in1012.2 mb 0.00 in0.0 mm 0.00 in0.0 mm 0.00 in0.0 mm
08:45 AM 36.3°F2.4°C 19.5°F-6.9°C 50% 1.6 mph E2.6 kmh E 6.9 mph11.1 kmh 29.90 in1012.5 mb 0.00 in0.0 mm 0.00 in0.0 mm 0.00 in0.0 mm
09:00 AM 36.5°F2.5°C 19.7°F-6.8°C 50% 4.5 mph SE7.2 kmh SE 6.9 mph11.1 kmh 29.91 in1012.9 mb 0.00 in0.0 mm 0.00 in0.0 mm 0.00 in0.0 mm
09:15 AM 37.0°F2.8°C 19.7°F-6.8°C 49% 3.8 mph SE6.1 kmh SE 9.8 mph15.8 kmh 29.91 in1012.9 mb 0.00 in0.0 mm 0.00 in0.0 mm 0.00 in0.0 mm
09:30 AM 37.8°F3.2°C 18.4°F-7.6°C 45% 6.9 mph E11.1 kmh E 12.1 mph19.5 kmh 29.91 in1012.9 mb 0.00 in0.0 mm 0.00 in0.0 mm 0.00 in0.0 mm
09:45 AM 38.8°F3.8°C 18.8°F-7.3°C 44% 2.2 mph ENE3.5 kmh ENE 14.5 mph23.3 kmh 29.92 in1013.2 mb 0.00 in0.0 mm 0.00 in0.0 mm 0.00 in0.0 mm
10:00 AM 39.6°F4.2°C 18.9°F-7.3°C 43% 4.5 mph WNW7.2 kmh WNW 15.2 mph24.5 kmh 29.91 in1012.9 mb 0.00 in0.0 mm 0.00 in0.0 mm 0.00 in0.0 mm
10:15 AM 39.9°F4.4°C 18.7°F-7.4°C 42% 3.8 mph ESE6.1 kmh ESE 17.4 mph28.0 kmh 29.91 in1012.9 mb 0.00 in0.0 mm 0.00 in0.0 mm 0.00 in0.0 mm
10:30 AM 40.3°F4.6°C 19.0°F-7.2°C 42% 6.0 mph NE9.7 kmh NE 19.0 mph30.6 kmh 29.91 in1012.9 mb 0.00 in0.0 mm 0.00 in0.0 mm 0.00 in0.0 mm
10:45 AM 40.6°F4.8°C 19.4°F-7.0°C 42% 6.0 mph E9.7 kmh E 15.2 mph24.5 kmh 29.92 in1013.2 mb 0.00 in0.0 mm 0.00 in0.0 mm 0.00 in0.0 mm
11:00 AM 41.2°F5.1°C 19.3°F-7.1°C 41% 13.6 mph N21.9 kmh N 18.3 mph29.5 kmh 29.92 in1013.2 mb 0.00 in0.0 mm 0.00 in0.0 mm 0.00 in0.0 mm
11:15 AM 41.9°F5.5°C 19.9°F-6.7°C 41% 13.6 mph SE21.9 kmh SE 18.3 mph29.5 kmh 29.93 in1013.5 mb 0.00 in0.0 mm 0.00 in0.0 mm 0.00 in0.0 mm
11:30 AM 42.3°F5.7°C 19.7°F-6.8°C 40% 9.8 mph E15.8 kmh E 17.4 mph28.0 kmh 29.94 in1013.9 mb 0.00 in0.0 mm 0.00 in0.0 mm 0.00 in0.0 mm
11:45 AM 43.2°F6.2°C 20.5°F-6.4°C 40% 5.4 mph NW8.7 kmh NW 10.7 mph17.2 kmh 29.94 in1013.9 mb 0.00 in0.0 mm 0.00 in0.0 mm 0.00 in0.0 mm
12:00 PM 43.5°F6.4°C 19.6°F-6.9°C 38% 6.0 mph SE9.7 kmh SE 17.4 mph28.0 kmh 29.94 in1013.9 mb 0.00 in0.0 mm 0.00 in0.0 mm 0.00 in0.0 mm
12:15 PM 44.2°F6.8°C 14.8°F-9.6°C 30% 9.8 mph ESE15.8 kmh ESE 15.9 mph25.6 kmh 29.94 in1013.9 mb 0.00 in0.0 mm 0.00 in0.0 mm 0.00 in0.0 mm
12:30 PM 43.9°F6.6°C 18.0°F-7.8°C 35% 14.5 mph ESE23.3 kmh ESE 25.1 mph40.4 kmh 29.92 in1013.2 mb 0.00 in0.0 mm 0.00 in0.0 mm 0.00 in0.0 mm
12:45 PM 44.8°F7.1°C 15.3°F-9.3°C 30% 9.8 mph ESE15.8 kmh ESE 21.3 mph34.3 kmh 29.92 in1013.2 mb 0.00 in0.0 mm 0.00 in0.0 mm 0.00 in0.0 mm
01:00 PM 44.8°F7.1°C 12.0°F-11.1°C 26% 19.7 mph SE31.7 kmh SE 32.0 mph51.5 kmh 29.92 in1013.2 mb 0.00 in0.0 mm 0.00 in0.0 mm 0.00 in0.0 mm
01:15 PM 45.1°F7.3°C 12.3°F-10.9°C 26% 9.2 mph SE14.8 kmh SE 30.4 mph48.9 kmh 29.92 in1013.2 mb 0.00 in0.0 mm 0.00 in0.0 mm 0.00 in0.0 mm
01:30 PM 45.5°F7.5°C 12.6°F-10.8°C 26% 21.3 mph ESE34.3 kmh ESE 27.3 mph43.9 kmh 29.91 in1012.9 mb 0.00 in0.0 mm 0.00 in0.0 mm 0.00 in0.0 mm
01:45 PM 46.2°F7.9°C 13.3°F-10.4°C 26% 16.8 mph ESE27.0 kmh ESE 25.1 mph40.4 kmh 29.90 in1012.5 mb 0.00 in0.0 mm 0.00 in0.0 mm 0.00 in0.0 mm
02:00 PM 45.7°F7.6°C 12.8°F-10.7°C 26% 8.3 mph ESE13.4 kmh ESE 34.2 mph55.0 kmh 29.90 in1012.5 mb 0.01 in0.3 mm 0.01 in0.3 mm 0.01 in0.3 mm
02:15 PM 46.0°F7.8°C 16.4°F-8.7°C 30% 13.0 mph ESE20.9 kmh ESE 33.6 mph54.1 kmh 29.90 in1012.5 mb 0.01 in0.3 mm 0.00 in0.0 mm 0.01 in0.3 mm
02:30 PM 46.2°F7.9°C 13.3°F-10.4°C 26% 17.4 mph SE28.0 kmh SE 25.9 mph41.7 kmh 29.90 in1012.5 mb 0.01 in0.3 mm 0.00 in0.0 mm 0.01 in0.3 mm
02:45 PM 46.2°F7.9°C 13.3°F-10.4°C 26% 11.4 mph ESE18.3 kmh ESE 28.9 mph46.5 kmh 29.90 in1012.5 mb 0.01 in0.3 mm 0.00 in0.0 mm 0.01 in0.3 mm
03:00 PM 46.4°F8.0°C 13.4°F-10.3°C 26% 15.2 mph ESE24.5 kmh ESE 28.9 mph46.5 kmh 29.91 in1012.9 mb 0.00 in0.0 mm 0.00 in0.0 mm 0.01 in0.3 mm
03:15 PM 46.8°F8.2°C 13.7°F-10.2°C 26% 10.7 mph SE17.2 kmh SE 21.3 mph34.3 kmh 29.93 in1013.5 mb 0.00 in0.0 mm 0.00 in0.0 mm 0.01 in0.3 mm
03:30 PM 46.8°F8.2°C 10.9°F-11.7°C 23% 13.0 mph E20.9 kmh E 22.8 mph36.7 kmh 29.93 in1013.5 mb 0.00 in0.0 mm 0.00 in0.0 mm 0.01 in0.3 mm
03:45 PM 47.1°F8.4°C 11.3°F-11.5°C 23% 4.5 mph SE7.2 kmh SE 19.7 mph31.7 kmh 29.94 in1013.9 mb 0.00 in0.0 mm 0.00 in0.0 mm 0.01 in0.3 mm
04:00 PM 46.9°F8.3°C 11.1°F-11.6°C 23% 13.0 mph SE20.9 kmh SE 20.6 mph33.2 kmh 29.94 in1013.9 mb 0.00 in0.0 mm 0.00 in0.0 mm 0.01 in0.3 mm
04:15 PM 46.8°F8.2°C 10.9°F-11.7°C 23% 13.0 mph ESE20.9 kmh ESE 27.3 mph43.9 kmh 29.94 in1013.9 mb 0.00 in0.0 mm 0.00 in0.0 mm 0.01 in0.3 mm
04:30 PM 46.8°F8.2°C 10.9°F-11.7°C 23% 17.4 mph SE28.0 kmh SE 23.5 mph37.8 kmh 29.96 in1014.6 mb 0.00 in0.0 mm 0.00 in0.0 mm 0.01 in0.3 mm
04:45 PM 46.6°F8.1°C 10.8°F-11.8°C 23% 20.6 mph SE33.2 kmh SE 24.4 mph39.3 kmh 29.96 in1014.6 mb 0.00 in0.0 mm 0.00 in0.0 mm 0.01 in0.3 mm
05:00 PM 46.2°F7.9°C 10.5°F-11.9°C 23% 14.5 mph ESE23.3 kmh ESE 28.2 mph45.4 kmh 29.96 in1014.6 mb 0.00 in0.0 mm 0.00 in0.0 mm 0.01 in0.3 mm
05:15 PM 46.0°F7.8°C 10.3°F-12.1°C 23% 6.9 mph SE11.1 kmh SE 28.2 mph45.4 kmh 29.97 in1014.9 mb 0.00 in0.0 mm 0.00 in0.0 mm 0.01 in0.3 mm
05:30 PM 46.0°F7.8°C 10.3°F-12.1°C 23% 11.4 mph SE18.3 kmh SE 15.9 mph25.6 kmh 29.96 in1014.6 mb 0.00 in0.0 mm 0.00 in0.0 mm 0.01 in0.3 mm
05:45 PM 45.5°F7.5°C 9.9°F-12.3°C 23% 5.4 mph ESE8.7 kmh ESE 9.8 mph15.8 kmh 29.96 in1014.6 mb 0.00 in0.0 mm 0.00 in0.0 mm 0.01 in0.3 mm
06:00 PM 45.0°F7.2°C 9.4°F-12.6°C 23% 2.2 mph E3.5 kmh E 12.1 mph19.5 kmh 29.97 in1014.9 mb 0.00 in0.0 mm 0.00 in0.0 mm 0.01 in0.3 mm
06:15 PM 44.8°F7.1°C 12.0°F-11.1°C 26% 3.1 mph E5.0 kmh E 11.4 mph18.3 kmh 29.98 in1015.2 mb 0.00 in0.0 mm 0.00 in0.0 mm 0.01 in0.3 mm
06:30 PM 44.4°F6.9°C 11.7°F-11.3°C 26% 6.9 mph SE11.1 kmh SE 15.9 mph25.6 kmh 29.98 in1015.2 mb 0.00 in0.0 mm 0.00 in0.0 mm 0.01 in0.3 mm
06:45 PM 44.2°F6.8°C 11.6°F-11.3°C 26% 3.8 mph E6.1 kmh E 13.0 mph20.9 kmh 29.99 in1015.6 mb 0.00 in0.0 mm 0.00 in0.0 mm 0.01 in0.3 mm
07:00 PM 43.9°F6.6°C 15.2°F-9.3°C 31% 3.1 mph SE5.0 kmh SE 15.9 mph25.6 kmh 29.99 in1015.6 mb 0.00 in0.0 mm 0.00 in0.0 mm 0.01 in0.3 mm
07:15 PM 43.7°F6.5°C 16.5°F-8.6°C 33% 4.5 mph E7.2 kmh E 10.7 mph17.2 kmh 29.99 in1015.6 mb 0.00 in0.0 mm 0.00 in0.0 mm 0.01 in0.3 mm
07:30 PM 43.0°F6.1°C 15.9°F-8.9°C 33% 2.2 mph SE3.5 kmh SE 7.6 mph12.2 kmh 30.00 in1015.9 mb 0.00 in0.0 mm 0.00 in0.0 mm 0.01 in0.3 mm
07:45 PM 42.6°F5.9°C 15.6°F-9.1°C 33% 6.9 mph SE11.1 kmh SE 8.3 mph13.4 kmh 30.02 in1016.6 mb 0.00 in0.0 mm 0.00 in0.0 mm 0.01 in0.3 mm
08:00 PM 42.6°F5.9°C 15.6°F-9.1°C 33% 6.9 mph SE11.1 kmh SE 12.1 mph19.5 kmh 30.02 in1016.6 mb 0.00 in0.0 mm 0.00 in0.0 mm 0.01 in0.3 mm
08:15 PM 42.6°F5.9°C 15.6°F-9.1°C 33% 2.2 mph SE3.5 kmh SE 15.2 mph24.5 kmh 30.02 in1016.6 mb 0.00 in0.0 mm 0.00 in0.0 mm 0.01 in0.3 mm
08:30 PM 42.4°F5.8°C 15.4°F-9.2°C 33% 3.1 mph ESE5.0 kmh ESE 14.5 mph23.3 kmh 30.04 in1017.3 mb 0.00 in0.0 mm 0.00 in0.0 mm 0.01 in0.3 mm
08:45 PM 42.3°F5.7°C 16.6°F-8.6°C 35% 6.0 mph E9.7 kmh E 13.6 mph21.9 kmh 30.04 in1017.3 mb 0.00 in0.0 mm 0.00 in0.0 mm 0.01 in0.3 mm
09:00 PM 41.9°F5.5°C 16.3°F-8.7°C 35% 4.5 mph S7.2 kmh S 10.7 mph17.2 kmh 30.04 in1017.3 mb 0.00 in0.0 mm 0.00 in0.0 mm 0.01 in0.3 mm
09:15 PM 41.7°F5.4°C 16.1°F-8.8°C 35% 5.4 mph ESE8.7 kmh ESE 11.4 mph18.3 kmh 30.05 in1017.6 mb 0.00 in0.0 mm 0.00 in0.0 mm 0.01 in0.3 mm
09:30 PM 41.5°F5.3°C 14.6°F-9.7°C 33% 7.6 mph E12.2 kmh E 13.0 mph20.9 kmh 30.06 in1017.9 mb 0.00 in0.0 mm 0.00 in0.0 mm 0.01 in0.3 mm
09:45 PM 41.4°F5.2°C 14.4°F-9.8°C 33% 4.5 mph E7.2 kmh E 14.5 mph23.3 kmh 30.06 in1017.9 mb 0.00 in0.0 mm 0.00 in0.0 mm 0.01 in0.3 mm
10:00 PM 41.2°F5.1°C 15.6°F-9.1°C 35% 6.0 mph SE9.7 kmh SE 15.2 mph24.5 kmh 30.06 in1017.9 mb 0.00 in0.0 mm 0.00 in0.0 mm 0.01 in0.3 mm
10:15 PM 40.8°F4.9°C 15.3°F-9.3°C 35% 7.6 mph SE12.2 kmh SE 10.7 mph17.2 kmh 30.06 in1017.9 mb 0.00 in0.0 mm 0.00 in0.0 mm 0.01 in0.3 mm
10:30 PM 40.6°F4.8°C 17.0°F-8.3°C 38% 3.8 mph ESE6.1 kmh ESE 9.8 mph15.8 kmh 30.06 in1017.9 mb 0.00 in0.0 mm 0.00 in0.0 mm 0.01 in0.3 mm
10:45 PM 40.5°F4.7°C 18.1°F-7.7°C 40% 3.1 mph ESE5.0 kmh ESE 6.0 mph9.7 kmh 30.06 in1017.9 mb 0.00 in0.0 mm 0.00 in0.0 mm 0.01 in0.3 mm
11:00 PM 40.5°F4.7°C 18.1°F-7.7°C 40% 3.1 mph SE5.0 kmh SE 13.0 mph20.9 kmh 30.06 in1017.9 mb 0.00 in0.0 mm 0.00 in0.0 mm 0.01 in0.3 mm
11:15 PM 40.3°F4.6°C 18.5°F-7.5°C 41% 3.1 mph E5.0 kmh E 8.3 mph13.4 kmh 30.08 in1018.6 mb 0.00 in0.0 mm 0.00 in0.0 mm 0.01 in0.3 mm
11:30 PM 40.1°F4.5°C 18.3°F-7.6°C 41% 2.2 mph E3.5 kmh E 9.2 mph14.8 kmh 30.08 in1018.6 mb 0.00 in0.0 mm 0.00 in0.0 mm 0.01 in0.3 mm
11:45 PM 39.6°F4.2°C 18.4°F-7.6°C 42% 1.6 mph NW2.6 kmh NW 6.0 mph9.7 kmh 30.08 in1018.6 mb 0.00 in0.0 mm 0.00 in0.0 mm 0.01 in0.3 mm